sensor_id;sensor_type;location;lat;lon;timestamp;P1;durP1;ratioP1;P2;durP2;ratioP2
1136;SDS011;557;48.466;7.950;2023-06-26T00:01:52;19.67;;;18.57;;
1136;SDS011;557;48.466;7.950;2023-06-26T00:04:41;19.40;;;18.10;;
1136;SDS011;557;48.466;7.950;2023-06-26T00:07:29;19.67;;;18.47;;
1136;SDS011;557;48.466;7.950;2023-06-26T00:10:19;19.90;;;18.57;;
1136;SDS011;557;48.466;7.950;2023-06-26T00:13:06;20.47;;;19.00;;
1136;SDS011;557;48.466;7.950;2023-06-26T00:15:54;19.20;;;18.00;;
1136;SDS011;557;48.466;7.950;2023-06-26T00:18:41;19.10;;;17.90;;
1136;SDS011;557;48.466;7.950;2023-06-26T00:21:30;18.80;;;17.60;;
1136;SDS011;557;48.466;7.950;2023-06-26T00:24:17;20.10;;;18.80;;
1136;SDS011;557;48.466;7.950;2023-06-26T00:27:05;20.10;;;18.70;;
1136;SDS011;557;48.466;7.950;2023-06-26T00:29:52;19.00;;;17.80;;
1136;SDS011;557;48.466;7.950;2023-06-26T00:32:39;19.63;;;18.33;;
1136;SDS011;557;48.466;7.950;2023-06-26T00:35:27;19.53;;;18.23;;
1136;SDS011;557;48.466;7.950;2023-06-26T00:38:16;18.97;;;17.80;;
1136;SDS011;557;48.466;7.950;2023-06-26T00:41:03;19.30;;;18.10;;
1136;SDS011;557;48.466;7.950;2023-06-26T00:43:50;19.60;;;18.27;;
1136;SDS011;557;48.466;7.950;2023-06-26T00:46:38;18.90;;;17.70;;
1136;SDS011;557;48.466;7.950;2023-06-26T00:49:25;19.27;;;17.97;;
1136;SDS011;557;48.466;7.950;2023-06-26T00:52:13;19.30;;;18.00;;
1136;SDS011;557;48.466;7.950;2023-06-26T00:55:03;19.27;;;18.00;;
1136;SDS011;557;48.466;7.950;2023-06-26T00:57:51;19.00;;;17.90;;
1136;SDS011;557;48.466;7.950;2023-06-26T01:00:40;19.60;;;18.30;;
1136;SDS011;557;48.466;7.950;2023-06-26T01:03:31;19.53;;;18.33;;
1136;SDS011;557;48.466;7.950;2023-06-26T01:06:19;19.47;;;18.30;;
1136;SDS011;557;48.466;7.950;2023-06-26T01:09:08;19.57;;;18.33;;
1136;SDS011;557;48.466;7.950;2023-06-26T01:11:56;19.40;;;18.10;;
1136;SDS011;557;48.466;7.950;2023-06-26T01:14:44;19.97;;;18.67;;
1136;SDS011;557;48.466;7.950;2023-06-26T01:17:31;18.80;;;17.60;;
1136;SDS011;557;48.466;7.950;2023-06-26T01:20:19;18.37;;;17.30;;
1136;SDS011;557;48.466;7.950;2023-06-26T01:23:07;19.50;;;17.90;;
1136;SDS011;557;48.466;7.950;2023-06-26T01:26:13;18.73;;;17.50;;
1136;SDS011;557;48.466;7.950;2023-06-26T01:29:04;19.17;;;17.80;;
1136;SDS011;557;48.466;7.950;2023-06-26T01:31:54;19.43;;;18.20;;
1136;SDS011;557;48.466;7.950;2023-06-26T01:34:41;18.67;;;17.50;;
1136;SDS011;557;48.466;7.950;2023-06-26T01:37:29;18.17;;;16.97;;
1136;SDS011;557;48.466;7.950;2023-06-26T01:40:17;19.20;;;17.97;;
1136;SDS011;557;48.466;7.950;2023-06-26T01:43:06;18.30;;;17.20;;
1136;SDS011;557;48.466;7.950;2023-06-26T01:46:02;18.77;;;17.57;;
1136;SDS011;557;48.466;7.950;2023-06-26T01:48:54;17.90;;;16.70;;
1136;SDS011;557;48.466;7.950;2023-06-26T01:51:46;18.50;;;17.40;;
1136;SDS011;557;48.466;7.950;2023-06-26T01:54:52;18.00;;;16.90;;
1136;SDS011;557;48.466;7.950;2023-06-26T01:57:43;17.83;;;16.73;;
1136;SDS011;557;48.466;7.950;2023-06-26T02:00:34;20.17;;;18.77;;
1136;SDS011;557;48.466;7.950;2023-06-26T02:03:22;19.40;;;17.83;;
1136;SDS011;557;48.466;7.950;2023-06-26T02:06:10;18.60;;;17.37;;
1136;SDS011;557;48.466;7.950;2023-06-26T02:08:57;18.70;;;17.50;;
1136;SDS011;557;48.466;7.950;2023-06-26T02:11:44;18.27;;;17.17;;
1136;SDS011;557;48.466;7.950;2023-06-26T02:14:31;18.37;;;17.17;;
1136;SDS011;557;48.466;7.950;2023-06-26T02:17:20;19.33;;;18.03;;
1136;SDS011;557;48.466;7.950;2023-06-26T02:20:08;19.63;;;18.20;;
1136;SDS011;557;48.466;7.950;2023-06-26T02:22:56;19.07;;;17.67;;
1136;SDS011;557;48.466;7.950;2023-06-26T02:25:43;18.40;;;17.20;;
1136;SDS011;557;48.466;7.950;2023-06-26T02:28:30;18.37;;;17.17;;
1136;SDS011;557;48.466;7.950;2023-06-26T02:31:19;17.67;;;16.67;;
1136;SDS011;557;48.466;7.950;2023-06-26T02:34:08;19.13;;;17.83;;
1136;SDS011;557;48.466;7.950;2023-06-26T02:36:56;19.50;;;18.20;;
1136;SDS011;557;48.466;7.950;2023-06-26T02:39:44;17.57;;;16.47;;
1136;SDS011;557;48.466;7.950;2023-06-26T02:42:31;18.10;;;17.00;;
1136;SDS011;557;48.466;7.950;2023-06-26T02:45:19;18.40;;;17.10;;
1136;SDS011;557;48.466;7.950;2023-06-26T02:48:06;18.47;;;17.30;;
1136;SDS011;557;48.466;7.950;2023-06-26T02:50:55;18.40;;;17.20;;
1136;SDS011;557;48.466;7.950;2023-06-26T02:53:42;18.73;;;17.53;;
1136;SDS011;557;48.466;7.950;2023-06-26T02:56:30;18.70;;;17.50;;
1136;SDS011;557;48.466;7.950;2023-06-26T02:59:17;19.37;;;18.07;;
1136;SDS011;557;48.466;7.950;2023-06-26T03:02:04;18.63;;;17.43;;
1136;SDS011;557;48.466;7.950;2023-06-26T03:04:52;18.60;;;17.40;;
1136;SDS011;557;48.466;7.950;2023-06-26T03:07:40;18.77;;;17.57;;
1136;SDS011;557;48.466;7.950;2023-06-26T03:10:27;18.67;;;17.47;;
1136;SDS011;557;48.466;7.950;2023-06-26T03:13:15;18.37;;;17.17;;
1136;SDS011;557;48.466;7.950;2023-06-26T03:16:02;18.60;;;17.30;;
1136;SDS011;557;48.466;7.950;2023-06-26T03:18:50;18.80;;;17.57;;
1136;SDS011;557;48.466;7.950;2023-06-26T03:21:37;19.50;;;18.20;;
1136;SDS011;557;48.466;7.950;2023-06-26T03:24:26;19.50;;;18.00;;
1136;SDS011;557;48.466;7.950;2023-06-26T03:27:13;18.37;;;17.20;;
1136;SDS011;557;48.466;7.950;2023-06-26T03:30:01;18.87;;;17.57;;
1136;SDS011;557;48.466;7.950;2023-06-26T03:32:48;20.83;;;19.43;;
1136;SDS011;557;48.466;7.950;2023-06-26T03:35:35;17.93;;;16.80;;
1136;SDS011;557;48.466;7.950;2023-06-26T03:38:23;18.70;;;17.40;;
1136;SDS011;557;48.466;7.950;2023-06-26T03:41:12;18.47;;;17.17;;
1136;SDS011;557;48.466;7.950;2023-06-26T03:44:00;19.00;;;17.60;;
1136;SDS011;557;48.466;7.950;2023-06-26T03:46:48;19.40;;;18.10;;
1136;SDS011;557;48.466;7.950;2023-06-26T03:49:35;18.40;;;17.20;;
1136;SDS011;557;48.466;7.950;2023-06-26T03:52:23;18.70;;;17.50;;
1136;SDS011;557;48.466;7.950;2023-06-26T03:55:10;18.20;;;17.10;;
1136;SDS011;557;48.466;7.950;2023-06-26T03:57:59;18.73;;;17.43;;
1136;SDS011;557;48.466;7.950;2023-06-26T04:00:46;18.80;;;17.50;;
1136;SDS011;557;48.466;7.950;2023-06-26T04:03:34;19.53;;;18.20;;
1136;SDS011;557;48.466;7.950;2023-06-26T04:06:21;19.80;;;18.50;;
1136;SDS011;557;48.466;7.950;2023-06-26T04:09:08;20.20;;;18.90;;
1136;SDS011;557;48.466;7.950;2023-06-26T04:11:56;21.53;;;20.10;;
1136;SDS011;557;48.466;7.950;2023-06-26T04:14:44;19.73;;;18.53;;
1136;SDS011;557;48.466;7.950;2023-06-26T04:17:32;20.50;;;19.10;;
1136;SDS011;557;48.466;7.950;2023-06-26T04:20:19;19.83;;;18.63;;
1136;SDS011;557;48.466;7.950;2023-06-26T04:23:06;19.97;;;18.63;;
1136;SDS011;557;48.466;7.950;2023-06-26T04:25:54;19.23;;;17.97;;
1136;SDS011;557;48.466;7.950;2023-06-26T04:28:41;20.17;;;18.77;;
1136;SDS011;557;48.466;7.950;2023-06-26T04:31:31;19.27;;;18.03;;
1136;SDS011;557;48.466;7.950;2023-06-26T04:34:18;18.93;;;17.70;;
1136;SDS011;557;48.466;7.950;2023-06-26T04:37:05;20.13;;;18.83;;
1136;SDS011;557;48.466;7.950;2023-06-26T04:39:54;19.07;;;17.87;;
1136;SDS011;557;48.466;7.950;2023-06-26T04:42:42;18.80;;;17.60;;
1136;SDS011;557;48.466;7.950;2023-06-26T04:45:29;19.00;;;17.60;;
1136;SDS011;557;48.466;7.950;2023-06-26T04:48:18;19.90;;;18.60;;
1136;SDS011;557;48.466;7.950;2023-06-26T04:51:05;19.47;;;18.17;;
1136;SDS011;557;48.466;7.950;2023-06-26T04:53:52;19.67;;;18.37;;
1136;SDS011;557;48.466;7.950;2023-06-26T04:56:39;19.37;;;18.17;;
1136;SDS011;557;48.466;7.950;2023-06-26T04:59:27;20.70;;;19.20;;
1136;SDS011;557;48.466;7.950;2023-06-26T05:02:14;18.93;;;17.73;;
1136;SDS011;557;48.466;7.950;2023-06-26T05:05:03;20.90;;;19.20;;
1136;SDS011;557;48.466;7.950;2023-06-26T05:07:52;19.40;;;18.10;;
1136;SDS011;557;48.466;7.950;2023-06-26T05:10:40;19.07;;;17.93;;
1136;SDS011;557;48.466;7.950;2023-06-26T05:13:27;18.83;;;17.67;;
1136;SDS011;557;48.466;7.950;2023-06-26T05:16:15;20.20;;;18.90;;
1136;SDS011;557;48.466;7.950;2023-06-26T05:19:02;18.73;;;17.53;;
1136;SDS011;557;48.466;7.950;2023-06-26T05:21:51;18.77;;;17.60;;
1136;SDS011;557;48.466;7.950;2023-06-26T05:24:39;19.27;;;18.03;;
1136;SDS011;557;48.466;7.950;2023-06-26T05:27:26;19.93;;;18.63;;
1136;SDS011;557;48.466;7.950;2023-06-26T05:30:14;19.63;;;18.23;;
1136;SDS011;557;48.466;7.950;2023-06-26T05:33:03;19.90;;;18.60;;
1136;SDS011;557;48.466;7.950;2023-06-26T05:35:51;21.10;;;19.60;;
1136;SDS011;557;48.466;7.950;2023-06-26T05:38:41;19.33;;;18.13;;
1136;SDS011;557;48.466;7.950;2023-06-26T05:41:30;20.07;;;18.77;;
1136;SDS011;557;48.466;7.950;2023-06-26T05:44:17;19.77;;;18.37;;
1136;SDS011;557;48.466;7.950;2023-06-26T05:47:05;19.83;;;18.33;;
1136;SDS011;557;48.466;7.950;2023-06-26T05:49:52;20.73;;;19.47;;
1136;SDS011;557;48.466;7.950;2023-06-26T05:52:40;20.77;;;19.47;;
1136;SDS011;557;48.466;7.950;2023-06-26T05:55:31;20.30;;;19.00;;
1136;SDS011;557;48.466;7.950;2023-06-26T05:58:18;20.00;;;18.70;;
1136;SDS011;557;48.466;7.950;2023-06-26T06:01:08;20.57;;;19.27;;
1136;SDS011;557;48.466;7.950;2023-06-26T06:03:55;21.03;;;19.53;;
1136;SDS011;557;48.466;7.950;2023-06-26T06:06:42;20.90;;;19.30;;
1136;SDS011;557;48.466;7.950;2023-06-26T06:09:30;21.30;;;19.90;;
1136;SDS011;557;48.466;7.950;2023-06-26T06:12:18;20.77;;;19.27;;
1136;SDS011;557;48.466;7.950;2023-06-26T06:15:06;22.70;;;21.03;;
1136;SDS011;557;48.466;7.950;2023-06-26T06:17:54;22.40;;;20.80;;
1136;SDS011;557;48.466;7.950;2023-06-26T06:20:41;20.67;;;19.17;;
1136;SDS011;557;48.466;7.950;2023-06-26T06:23:28;21.63;;;20.23;;
1136;SDS011;557;48.466;7.950;2023-06-26T06:26:16;20.77;;;19.47;;
1136;SDS011;557;48.466;7.950;2023-06-26T06:29:04;20.40;;;19.10;;
1136;SDS011;557;48.466;7.950;2023-06-26T06:31:52;20.50;;;19.20;;
1136;SDS011;557;48.466;7.950;2023-06-26T06:34:39;21.70;;;20.10;;
1136;SDS011;557;48.466;7.950;2023-06-26T06:37:26;20.80;;;19.50;;
1136;SDS011;557;48.466;7.950;2023-06-26T06:40:16;21.60;;;20.10;;
1136;SDS011;557;48.466;7.950;2023-06-26T06:43:04;21.63;;;20.23;;
1136;SDS011;557;48.466;7.950;2023-06-26T06:45:53;21.87;;;20.37;;
1136;SDS011;557;48.466;7.950;2023-06-26T06:48:41;21.47;;;20.07;;
1136;SDS011;557;48.466;7.950;2023-06-26T06:51:29;22.03;;;20.53;;
1136;SDS011;557;48.466;7.950;2023-06-26T06:54:16;22.60;;;21.00;;
1136;SDS011;557;48.466;7.950;2023-06-26T06:57:04;21.67;;;20.17;;
1136;SDS011;557;48.466;7.950;2023-06-26T06:59:51;22.50;;;21.10;;
1136;SDS011;557;48.466;7.950;2023-06-26T07:02:41;22.60;;;21.10;;
1136;SDS011;557;48.466;7.950;2023-06-26T07:05:29;23.25;;;21.65;;
1136;SDS011;557;48.466;7.950;2023-06-26T07:08:17;22.85;;;21.15;;
1136;SDS011;557;48.466;7.950;2023-06-26T07:11:04;23.13;;;21.30;;
1136;SDS011;557;48.466;7.950;2023-06-26T07:13:52;23.00;;;21.50;;
1136;SDS011;557;48.466;7.950;2023-06-26T07:16:39;23.05;;;21.55;;
1136;SDS011;557;48.466;7.950;2023-06-26T07:19:28;23.67;;;22.02;;
1136;SDS011;557;48.466;7.950;2023-06-26T07:22:15;23.67;;;22.08;;
1136;SDS011;557;48.466;7.950;2023-06-26T07:25:04;24.15;;;22.17;;
1136;SDS011;557;48.466;7.950;2023-06-26T07:27:55;23.42;;;21.90;;
1136;SDS011;557;48.466;7.950;2023-06-26T07:30:43;24.02;;;22.48;;
1136;SDS011;557;48.466;7.950;2023-06-26T07:33:33;23.48;;;21.88;;
1136;SDS011;557;48.466;7.950;2023-06-26T07:36:22;23.63;;;22.13;;
1136;SDS011;557;48.466;7.950;2023-06-26T07:39:09;23.77;;;22.27;;
1136;SDS011;557;48.466;7.950;2023-06-26T07:41:56;24.30;;;22.80;;
1136;SDS011;557;48.466;7.950;2023-06-26T07:44:44;24.08;;;22.52;;
1136;SDS011;557;48.466;7.950;2023-06-26T07:47:32;24.05;;;22.45;;
1136;SDS011;557;48.466;7.950;2023-06-26T07:50:19;23.90;;;22.40;;
1136;SDS011;557;48.466;7.950;2023-06-26T07:53:09;24.70;;;23.10;;
1136;SDS011;557;48.466;7.950;2023-06-26T07:55:57;23.55;;;22.05;;
1136;SDS011;557;48.466;7.950;2023-06-26T07:58:44;23.70;;;22.20;;
1136;SDS011;557;48.466;7.950;2023-06-26T08:01:31;23.42;;;21.92;;
1136;SDS011;557;48.466;7.950;2023-06-26T08:04:19;23.60;;;22.10;;
1136;SDS011;557;48.466;7.950;2023-06-26T08:07:07;23.00;;;21.50;;
1136;SDS011;557;48.466;7.950;2023-06-26T08:09:56;24.65;;;23.13;;
1136;SDS011;557;48.466;7.950;2023-06-26T08:12:43;24.30;;;22.80;;
1136;SDS011;557;48.466;7.950;2023-06-26T08:15:32;24.30;;;22.80;;
1136;SDS011;557;48.466;7.950;2023-06-26T08:18:19;24.10;;;22.45;;
1136;SDS011;557;48.466;7.950;2023-06-26T08:21:07;24.15;;;22.55;;
1136;SDS011;557;48.466;7.950;2023-06-26T08:23:56;24.08;;;22.58;;
1136;SDS011;557;48.466;7.950;2023-06-26T08:26:45;24.60;;;22.92;;
1136;SDS011;557;48.466;7.950;2023-06-26T08:29:33;24.00;;;22.48;;
1136;SDS011;557;48.466;7.950;2023-06-26T08:32:20;24.77;;;23.27;;
1136;SDS011;557;48.466;7.950;2023-06-26T08:35:08;23.42;;;21.92;;
1136;SDS011;557;48.466;7.950;2023-06-26T08:37:56;24.55;;;23.00;;
1136;SDS011;557;48.466;7.950;2023-06-26T08:40:43;23.92;;;22.42;;
1136;SDS011;557;48.466;7.950;2023-06-26T08:43:32;23.52;;;22.05;;
1136;SDS011;557;48.466;7.950;2023-06-26T08:46:20;23.33;;;21.92;;
1136;SDS011;557;48.466;7.950;2023-06-26T08:49:08;23.27;;;21.80;;
1136;SDS011;557;48.466;7.950;2023-06-26T08:52:02;25.02;;;23.42;;
1136;SDS011;557;48.466;7.950;2023-06-26T08:54:54;24.90;;;23.30;;
1136;SDS011;557;48.466;7.950;2023-06-26T08:57:45;24.58;;;22.90;;
1136;SDS011;557;48.466;7.950;2023-06-26T09:00:33;25.58;;;23.88;;
1136;SDS011;557;48.466;7.950;2023-06-26T09:03:21;25.17;;;23.55;;
1136;SDS011;557;48.466;7.950;2023-06-26T09:06:10;26.00;;;24.30;;
1136;SDS011;557;48.466;7.950;2023-06-26T09:08:58;25.65;;;23.95;;
1136;SDS011;557;48.466;7.950;2023-06-26T09:11:45;25.35;;;23.65;;
1136;SDS011;557;48.466;7.950;2023-06-26T09:14:32;25.00;;;23.30;;
1136;SDS011;557;48.466;7.950;2023-06-26T09:17:22;25.90;;;24.20;;
1136;SDS011;557;48.466;7.950;2023-06-26T09:20:11;25.42;;;23.80;;
1136;SDS011;557;48.466;7.950;2023-06-26T09:23:00;25.73;;;23.92;;
1136;SDS011;557;48.466;7.950;2023-06-26T09:25:47;25.55;;;23.95;;
1136;SDS011;557;48.466;7.950;2023-06-26T09:28:35;25.63;;;23.98;;
1136;SDS011;557;48.466;7.950;2023-06-26T09:31:23;25.13;;;23.42;;
1136;SDS011;557;48.466;7.950;2023-06-26T09:34:12;25.98;;;24.15;;
1136;SDS011;557;48.466;7.950;2023-06-26T09:37:00;25.13;;;23.33;;
1136;SDS011;557;48.466;7.950;2023-06-26T09:39:48;25.17;;;23.55;;
1136;SDS011;557;48.466;7.950;2023-06-26T09:42:37;24.55;;;23.10;;
1136;SDS011;557;48.466;7.950;2023-06-26T09:45:24;25.45;;;23.85;;
1136;SDS011;557;48.466;7.950;2023-06-26T09:48:12;24.27;;;22.63;;
1136;SDS011;557;48.466;7.950;2023-06-26T09:51:04;24.77;;;23.27;;
1136;SDS011;557;48.466;7.950;2023-06-26T09:53:51;26.02;;;24.42;;
1136;SDS011;557;48.466;7.950;2023-06-26T09:56:38;25.00;;;23.40;;
1136;SDS011;557;48.466;7.950;2023-06-26T09:59:26;25.40;;;23.80;;
1136;SDS011;557;48.466;7.950;2023-06-26T10:02:13;25.55;;;24.00;;
1136;SDS011;557;48.466;7.950;2023-06-26T10:05:00;24.25;;;22.67;;
1136;SDS011;557;48.466;7.950;2023-06-26T10:07:50;22.88;;;21.48;;
1136;SDS011;557;48.466;7.950;2023-06-26T10:10:39;21.90;;;20.60;;
1136;SDS011;557;48.466;7.950;2023-06-26T10:13:27;22.50;;;21.13;;
1136;SDS011;557;48.466;7.950;2023-06-26T10:16:19;22.73;;;21.33;;
1136;SDS011;557;48.466;7.950;2023-06-26T10:19:10;23.30;;;21.90;;
1136;SDS011;557;48.466;7.950;2023-06-26T10:22:00;24.55;;;22.92;;
1136;SDS011;557;48.466;7.950;2023-06-26T10:24:51;23.08;;;21.67;;
1136;SDS011;557;48.466;7.950;2023-06-26T10:27:42;21.77;;;20.48;;
1136;SDS011;557;48.466;7.950;2023-06-26T10:30:33;25.48;;;23.88;;
1136;SDS011;557;48.466;7.950;2023-06-26T10:33:22;23.70;;;21.98;;
1136;SDS011;557;48.466;7.950;2023-06-26T10:36:13;22.20;;;20.70;;
1136;SDS011;557;48.466;7.950;2023-06-26T10:39:04;22.35;;;20.88;;
1136;SDS011;557;48.466;7.950;2023-06-26T10:41:55;21.45;;;20.15;;
1136;SDS011;557;48.466;7.950;2023-06-26T10:44:55;22.58;;;21.17;;
1136;SDS011;557;48.466;7.950;2023-06-26T10:47:55;21.83;;;20.42;;
1136;SDS011;557;48.466;7.950;2023-06-26T10:50:46;22.90;;;21.50;;
1136;SDS011;557;48.466;7.950;2023-06-26T10:53:41;22.52;;;21.10;;
1136;SDS011;557;48.466;7.950;2023-06-26T10:56:43;22.10;;;20.80;;
1136;SDS011;557;48.466;7.950;2023-06-26T10:59:32;22.55;;;21.02;;
1136;SDS011;557;48.466;7.950;2023-06-26T11:02:20;24.08;;;22.55;;
1136;SDS011;557;48.466;7.950;2023-06-26T11:05:12;23.00;;;21.70;;
1136;SDS011;557;48.466;7.950;2023-06-26T11:08:10;21.77;;;20.30;;
1136;SDS011;557;48.466;7.950;2023-06-26T11:11:01;21.02;;;19.77;;
1136;SDS011;557;48.466;7.950;2023-06-26T11:13:48;22.15;;;20.75;;
1136;SDS011;557;48.466;7.950;2023-06-26T11:16:37;22.35;;;20.95;;
1136;SDS011;557;48.466;7.950;2023-06-26T11:19:29;21.70;;;20.40;;
1136;SDS011;557;48.466;7.950;2023-06-26T11:22:17;23.08;;;21.65;;
1136;SDS011;557;48.466;7.950;2023-06-26T11:25:06;23.40;;;22.00;;
1136;SDS011;557;48.466;7.950;2023-06-26T11:27:55;21.77;;;20.48;;
1136;SDS011;557;48.466;7.950;2023-06-26T11:30:43;22.67;;;21.23;;
1136;SDS011;557;48.466;7.950;2023-06-26T11:33:31;22.05;;;20.75;;
1136;SDS011;557;48.466;7.950;2023-06-26T11:36:19;22.35;;;20.90;;
1136;SDS011;557;48.466;7.950;2023-06-26T11:39:06;22.40;;;21.00;;
1136;SDS011;557;48.466;7.950;2023-06-26T11:41:54;21.55;;;20.15;;
1136;SDS011;557;48.466;7.950;2023-06-26T11:44:41;23.33;;;21.83;;
1136;SDS011;557;48.466;7.950;2023-06-26T11:47:29;22.00;;;20.70;;
1136;SDS011;557;48.466;7.950;2023-06-26T11:50:18;21.17;;;19.88;;
1136;SDS011;557;48.466;7.950;2023-06-26T11:53:05;21.67;;;20.30;;
1136;SDS011;557;48.466;7.950;2023-06-26T11:55:53;21.20;;;19.90;;
1136;SDS011;557;48.466;7.950;2023-06-26T12:01:47;22.77;;;21.08;;
1136;SDS011;557;48.466;7.950;2023-06-26T12:04:37;20.63;;;19.42;;
1136;SDS011;557;48.466;7.950;2023-06-26T12:07:26;20.92;;;19.73;;
1136;SDS011;557;48.466;7.950;2023-06-26T12:10:16;20.25;;;19.05;;
1136;SDS011;557;48.466;7.950;2023-06-26T12:13:05;21.00;;;19.70;;
1136;SDS011;557;48.466;7.950;2023-06-26T12:15:54;20.58;;;19.38;;
1136;SDS011;557;48.466;7.950;2023-06-26T12:18:41;20.65;;;19.45;;
1136;SDS011;557;48.466;7.950;2023-06-26T12:21:46;22.05;;;20.75;;
1136;SDS011;557;48.466;7.950;2023-06-26T12:24:39;21.52;;;20.23;;
1136;SDS011;557;48.466;7.950;2023-06-26T12:27:28;21.17;;;19.98;;
1136;SDS011;557;48.466;7.950;2023-06-26T12:30:16;22.70;;;21.40;;
1136;SDS011;557;48.466;7.950;2023-06-26T12:33:03;21.20;;;20.00;;
1136;SDS011;557;48.466;7.950;2023-06-26T12:35:50;20.33;;;19.13;;
1136;SDS011;557;48.466;7.950;2023-06-26T12:38:38;20.55;;;19.20;;
1136;SDS011;557;48.466;7.950;2023-06-26T12:41:26;20.00;;;18.77;;
1136;SDS011;557;48.466;7.950;2023-06-26T12:44:17;20.23;;;19.02;;
1136;SDS011;557;48.466;7.950;2023-06-26T12:47:05;20.58;;;18.92;;
1136;SDS011;557;48.466;7.950;2023-06-26T12:49:53;20.05;;;18.85;;
1136;SDS011;557;48.466;7.950;2023-06-26T12:52:41;20.88;;;19.77;;
1136;SDS011;557;48.466;7.950;2023-06-26T12:55:29;19.90;;;18.73;;
1136;SDS011;557;48.466;7.950;2023-06-26T12:58:17;20.63;;;19.42;;
1136;SDS011;557;48.466;7.950;2023-06-26T13:01:05;20.67;;;19.23;;
1136;SDS011;557;48.466;7.950;2023-06-26T13:03:56;20.13;;;18.92;;
1136;SDS011;557;48.466;7.950;2023-06-26T13:06:43;20.42;;;19.20;;
1136;SDS011;557;48.466;7.950;2023-06-26T13:09:31;20.35;;;19.15;;
1136;SDS011;557;48.466;7.950;2023-06-26T13:12:20;22.25;;;21.05;;
1136;SDS011;557;48.466;7.950;2023-06-26T13:15:09;20.85;;;19.38;;
1136;SDS011;557;48.466;7.950;2023-06-26T13:17:57;19.65;;;18.50;;
1136;SDS011;557;48.466;7.950;2023-06-26T13:20:44;19.52;;;18.25;;
1136;SDS011;557;48.466;7.950;2023-06-26T13:23:32;19.95;;;18.75;;
1136;SDS011;557;48.466;7.950;2023-06-26T13:26:20;19.55;;;18.52;;
1136;SDS011;557;48.466;7.950;2023-06-26T13:29:07;20.23;;;18.92;;
1136;SDS011;557;48.466;7.950;2023-06-26T13:31:56;19.98;;;18.75;;
1136;SDS011;557;48.466;7.950;2023-06-26T13:34:43;21.40;;;20.17;;
1136;SDS011;557;48.466;7.950;2023-06-26T13:37:31;19.75;;;18.65;;
1136;SDS011;557;48.466;7.950;2023-06-26T13:40:19;20.05;;;18.77;;
1136;SDS011;557;48.466;7.950;2023-06-26T13:43:07;19.63;;;18.42;;
1136;SDS011;557;48.466;7.950;2023-06-26T13:45:54;19.80;;;18.55;;
1136;SDS011;557;48.466;7.950;2023-06-26T13:48:43;20.08;;;18.77;;
1136;SDS011;557;48.466;7.950;2023-06-26T13:51:31;20.30;;;19.05;;
1136;SDS011;557;48.466;7.950;2023-06-26T13:54:18;20.05;;;18.85;;
1136;SDS011;557;48.466;7.950;2023-06-26T13:57:06;20.63;;;19.50;;
1136;SDS011;557;48.466;7.950;2023-06-26T13:59:53;20.08;;;18.98;;
1136;SDS011;557;48.466;7.950;2023-06-26T14:02:41;20.45;;;19.35;;
1136;SDS011;557;48.466;7.950;2023-06-26T14:05:30;20.55;;;19.40;;
1136;SDS011;557;48.466;7.950;2023-06-26T14:08:17;20.90;;;19.80;;
1136;SDS011;557;48.466;7.950;2023-06-26T14:11:04;20.30;;;19.15;;
1136;SDS011;557;48.466;7.950;2023-06-26T14:13:51;20.88;;;19.67;;
1136;SDS011;557;48.466;7.950;2023-06-26T14:16:39;20.33;;;19.13;;
1136;SDS011;557;48.466;7.950;2023-06-26T14:19:26;21.13;;;19.92;;
1136;SDS011;557;48.466;7.950;2023-06-26T14:22:15;21.63;;;20.42;;
1136;SDS011;557;48.466;7.950;2023-06-26T14:25:02;22.17;;;20.67;;
1136;SDS011;557;48.466;7.950;2023-06-26T14:27:50;21.75;;;20.45;;
1136;SDS011;557;48.466;7.950;2023-06-26T14:30:37;22.27;;;20.90;;
1136;SDS011;557;48.466;7.950;2023-06-26T14:33:24;22.90;;;21.50;;
1136;SDS011;557;48.466;7.950;2023-06-26T14:36:12;21.38;;;20.10;;
1136;SDS011;557;48.466;7.950;2023-06-26T14:39:00;23.10;;;21.60;;
1136;SDS011;557;48.466;7.950;2023-06-26T14:41:48;23.85;;;22.35;;
1136;SDS011;557;48.466;7.950;2023-06-26T14:44:35;23.58;;;22.08;;
1136;SDS011;557;48.466;7.950;2023-06-26T14:47:23;24.35;;;22.75;;
1136;SDS011;557;48.466;7.950;2023-06-26T14:50:10;23.95;;;22.35;;
1136;SDS011;557;48.466;7.950;2023-06-26T14:52:57;23.90;;;22.40;;
1136;SDS011;557;48.466;7.950;2023-06-26T14:55:46;23.38;;;21.98;;
1136;SDS011;557;48.466;7.950;2023-06-26T14:58:34;23.13;;;21.73;;
1136;SDS011;557;48.466;7.950;2023-06-26T15:01:21;23.52;;;22.00;;
1136;SDS011;557;48.466;7.950;2023-06-26T15:04:08;23.98;;;22.45;;
1136;SDS011;557;48.466;7.950;2023-06-26T15:06:56;24.45;;;22.83;;
1136;SDS011;557;48.466;7.950;2023-06-26T15:09:44;23.60;;;22.10;;
1136;SDS011;557;48.466;7.950;2023-06-26T15:12:33;23.75;;;22.13;;
1136;SDS011;557;48.466;7.950;2023-06-26T15:15:20;23.88;;;22.38;;
1136;SDS011;557;48.466;7.950;2023-06-26T15:18:07;23.70;;;22.20;;
1136;SDS011;557;48.466;7.950;2023-06-26T15:20:55;23.77;;;22.20;;
1136;SDS011;557;48.466;7.950;2023-06-26T15:23:42;23.70;;;22.20;;
1136;SDS011;557;48.466;7.950;2023-06-26T15:26:29;22.50;;;21.00;;
1136;SDS011;557;48.466;7.950;2023-06-26T15:29:18;24.08;;;22.48;;
1136;SDS011;557;48.466;7.950;2023-06-26T15:32:06;23.33;;;21.83;;
1136;SDS011;557;48.466;7.950;2023-06-26T15:34:53;22.10;;;20.60;;
1136;SDS011;557;48.466;7.950;2023-06-26T15:37:41;22.02;;;20.52;;
1136;SDS011;557;48.466;7.950;2023-06-26T15:40:29;21.48;;;19.98;;
1136;SDS011;557;48.466;7.950;2023-06-26T15:43:17;21.67;;;20.30;;
1136;SDS011;557;48.466;7.950;2023-06-26T15:46:05;21.50;;;20.25;;
1136;SDS011;557;48.466;7.950;2023-06-26T15:48:52;20.40;;;19.20;;
1136;SDS011;557;48.466;7.950;2023-06-26T15:51:40;19.67;;;18.48;;
1136;SDS011;557;48.466;7.950;2023-06-26T15:54:27;18.63;;;17.52;;
1136;SDS011;557;48.466;7.950;2023-06-26T15:57:14;18.23;;;17.23;;
1136;SDS011;557;48.466;7.950;2023-06-26T16:00:02;18.60;;;17.27;;
1136;SDS011;557;48.466;7.950;2023-06-26T16:02:51;18.92;;;17.23;;
1136;SDS011;557;48.466;7.950;2023-06-26T16:05:39;18.52;;;17.52;;
1136;SDS011;557;48.466;7.950;2023-06-26T16:08:26;18.73;;;17.73;;
1136;SDS011;557;48.466;7.950;2023-06-26T16:11:14;18.92;;;17.90;;
1136;SDS011;557;48.466;7.950;2023-06-26T16:14:01;18.02;;;17.00;;
1136;SDS011;557;48.466;7.950;2023-06-26T16:16:48;18.08;;;17.08;;
1136;SDS011;557;48.466;7.950;2023-06-26T16:19:37;18.20;;;17.10;;
1136;SDS011;557;48.466;7.950;2023-06-26T16:22:24;18.38;;;17.38;;
1136;SDS011;557;48.466;7.950;2023-06-26T16:25:12;18.27;;;17.17;;
1136;SDS011;557;48.466;7.950;2023-06-26T16:27:59;18.42;;;17.42;;
1136;SDS011;557;48.466;7.950;2023-06-26T16:30:46;18.25;;;17.13;;
1136;SDS011;557;48.466;7.950;2023-06-26T16:33:34;22.00;;;20.60;;
1136;SDS011;557;48.466;7.950;2023-06-26T16:36:23;18.25;;;17.25;;
1136;SDS011;557;48.466;7.950;2023-06-26T16:39:10;17.83;;;16.83;;
1136;SDS011;557;48.466;7.950;2023-06-26T16:42:01;16.98;;;16.05;;
1136;SDS011;557;48.466;7.950;2023-06-26T16:44:48;17.48;;;16.48;;
1136;SDS011;557;48.466;7.950;2023-06-26T16:47:36;17.60;;;16.30;;
1136;SDS011;557;48.466;7.950;2023-06-26T16:50:23;17.30;;;16.40;;
1136;SDS011;557;48.466;7.950;2023-06-26T16:53:12;17.00;;;16.10;;
1136;SDS011;557;48.466;7.950;2023-06-26T16:55:59;17.40;;;16.50;;
1136;SDS011;557;48.466;7.950;2023-06-26T16:58:47;17.58;;;16.50;;
1136;SDS011;557;48.466;7.950;2023-06-26T17:01:34;17.50;;;16.50;;
1136;SDS011;557;48.466;7.950;2023-06-26T17:04:21;17.35;;;16.40;;
1136;SDS011;557;48.466;7.950;2023-06-26T17:07:09;17.90;;;16.92;;
1136;SDS011;557;48.466;7.950;2023-06-26T17:09:57;17.42;;;16.40;;
1136;SDS011;557;48.466;7.950;2023-06-26T17:12:45;18.23;;;16.92;;